MAPA DE AEROPUERTO

INFORMACIÓN METAR y TAF

METAR FOR LELL
ADDS - METARS form results

(2047 UTC 28 February 2020)
Data provider http://aviationweather.gov/metar/data/
 
METAR text: LELL 282030Z AUTO VRB02KT CAVOK 12/09 Q1019
Conditions at: LELL (SABADELL , ES) observed 2030 UTC 28 February 2020
Temperature: 12.0°C (54°F)
Dewpoint: 9.0°C (48°F) [RH = 82%]
Pressure (altimeter): 30.09 inches Hg (1019.0 mb)
Winds: variable direction winds at 2 MPH (2 knots; 1.0 m/s)
Visibility: 6 or more miles (10+ km)
Ceiling: ceiling and visibility are OK
Clouds: unknown
Weather: no significant weather observed at this time

METAR text: LELL 282000Z AUTO VRB02KT 9999 BKN030 13/10 Q1020
Conditions at: LELL (SABADELL , ES) observed 2000 UTC 28 February 2020
Temperature: 13.0°C (55°F)
Dewpoint: 10.0°C (50°F) [RH = 82%]
Pressure (altimeter): 30.12 inches Hg (1020.0 mb)
Winds: variable direction winds at 2 MPH (2 knots; 1.0 m/s)
Visibility: 6 or more miles (10+ km)
Ceiling: 3000 feet AGL
Clouds: broken clouds at 3000 feet AGL
Weather: no significant weather observed at this time

Forecast for: LELL (SABADELL , ES)
Text: TAF LELL 281400Z 2815/2915 20008KT 9999 SCT020 TX21/2913Z TN09/2906Z
Forecast period: 1500 to 1800 UTC 28 February 2020
Forecast type: FROM: standard forecast or significant change
Winds: from the SSW (200 degrees) at 9 MPH (8 knots; 4.1 m/s)
Visibility: 6 or more miles 10+ km)
Ceiling: at least 12,000 feet AGL
Clouds: scattered clouds at 2000 feet AGL
Weather: no significant weather forecast for this period
Text: BECMG 2818/2820 VRB03KT
Forecast period: 1800 UTC 28 February 2020 to 1000 UTC 29 February 2020
Forecast type: BECOMING: Conditions expected to become as follows by 2000 UTC 28 February 2020
Winds: variable direction winds at 3 MPH (3 knots; 1.5 m/s)
Visibility: 6 or more miles 10+ km)
Ceiling: at least 12,000 feet AGL
Clouds: scattered clouds at 2000 feet AGL
Weather: no significant weather forecast for this period
Text: PROB30
Forecast period: 2200 UTC 28 February 2020 to 0900 UTC 29 February 2020
Forecast type: TEMPORARY: The following changes expected for less than half the time period
Visibility: 2.49 miles (4.01 km)
Ceiling: 1000 feet AGL
Clouds: broken clouds at 1000 feet AGL
Weather: BR  (mist)
Text: TEMPO 2822/2909 4000 BR BKN010
Forecast period: 1000 to 1500 UTC 29 February 2020
Forecast type: BECOMING: Conditions expected to become as follows by 1300 UTC 29 February 2020
Winds: from the W (260 degrees) at 16 MPH (14 knots; 7.2 m/s)
Visibility: 6 or more miles 10+ km)
Ceiling: at least 12,000 feet AGL
Clouds: scattered clouds at 2000 feet AGL
Weather: no significant weather forecast for this period